createdAt,value
2023-04-12T00:01:30.207Z,95149.06
2023-04-12T00:03:58.436Z,95138.28
2023-04-12T00:06:32.082Z,95136.00
2023-04-12T00:09:00.404Z,95131.41
2023-04-12T00:11:28.417Z,95129.47
2023-04-12T00:13:56.801Z,95125.84
2023-04-12T00:16:24.738Z,95115.03
2023-04-12T00:18:52.494Z,95113.50
2023-04-12T00:21:20.461Z,95108.75
2023-04-12T00:23:49.456Z,95114.50
2023-04-12T00:26:17.464Z,95107.78
2023-04-12T00:28:46.057Z,95111.88
2023-04-12T00:31:13.773Z,95116.59
2023-04-12T00:33:41.551Z,95112.00
2023-04-12T00:36:10.255Z,95112.06
2023-04-12T00:38:37.960Z,95105.81
2023-04-12T00:41:07.963Z,95118.50
2023-04-12T00:43:35.662Z,95114.88
2023-04-12T00:46:04.033Z,95112.44
2023-04-12T00:48:32.299Z,95110.69
2023-04-12T00:51:01.568Z,95110.69
2023-04-12T00:53:29.572Z,95111.06
2023-04-12T00:55:57.857Z,95116.31
2023-04-12T00:58:26.885Z,95110.69
2023-04-12T01:00:54.810Z,95113.63
2023-04-12T01:03:24.741Z,95109.38
2023-04-12T01:06:04.343Z,95105.16
2023-04-12T01:08:41.837Z,95102.28
2023-04-12T01:11:19.442Z,95111.63
2023-04-12T01:13:54.542Z,95104.41
2023-04-12T01:16:32.869Z,95102.13
2023-04-12T01:19:05.768Z,95104.88
2023-04-12T01:21:46.156Z,95106.63
2023-04-12T01:24:28.917Z,95100.63
2023-04-12T01:27:00.827Z,95099.63
2023-04-12T01:29:31.086Z,95093.56
2023-04-12T01:32:01.476Z,95087.59
2023-04-12T01:34:32.228Z,95095.41
2023-04-12T01:37:03.533Z,95090.97
2023-04-12T01:39:32.397Z,95089.00
2023-04-12T01:42:00.970Z,95090.28
2023-04-12T01:44:30.852Z,95098.59
2023-04-12T01:46:58.895Z,95090.56
2023-04-12T01:49:31.430Z,95093.66
2023-04-12T01:52:03.912Z,95086.06
2023-04-12T01:54:37.816Z,95086.88
2023-04-12T01:57:08.457Z,95082.00
2023-04-12T01:59:40.702Z,95075.75
2023-04-12T02:02:11.475Z,95080.19
2023-04-12T02:04:39.823Z,95074.06
2023-04-12T02:07:07.584Z,95070.13
2023-04-12T02:09:38.113Z,95065.00
2023-04-12T02:12:06.783Z,95062.81
2023-04-12T02:14:34.435Z,95057.47
2023-04-12T02:17:05.717Z,95056.19
2023-04-12T02:19:33.876Z,95051.13
2023-04-12T02:22:04.601Z,95057.75
2023-04-12T02:24:32.498Z,95045.97
2023-04-12T02:27:01.480Z,95039.09
2023-04-12T02:29:29.682Z,95035.19
2023-04-12T02:31:57.827Z,95033.19
2023-04-12T02:34:31.255Z,95030.50
2023-04-12T02:37:07.905Z,95032.03
2023-04-12T02:39:35.833Z,95022.88
2023-04-12T02:42:03.740Z,95018.72
2023-04-12T02:44:31.483Z,95016.75
2023-04-12T02:47:11.239Z,95008.22
2023-04-12T02:49:41.767Z,95004.03
2023-04-12T02:52:11.394Z,95002.34
2023-04-12T02:54:47.499Z,94995.44
2023-04-12T02:57:17.597Z,94994.91
2023-04-12T02:59:47.637Z,94989.66
2023-04-12T03:02:38.448Z,94985.41
2023-04-12T03:05:12.327Z,94975.50
2023-04-12T03:07:43.432Z,94975.44
2023-04-12T03:10:13.210Z,94963.47
2023-04-12T03:12:46.229Z,94961.31
2023-04-12T03:15:22.005Z,94962.94
2023-04-12T03:17:49.864Z,94955.72
2023-04-12T03:20:24.314Z,94959.84
2023-04-12T03:23:12.177Z,94949.66
2023-04-12T03:25:44.786Z,94949.53
2023-04-12T03:28:33.604Z,94942.88
2023-04-12T03:31:03.346Z,94941.03
2023-04-12T03:33:42.927Z,94947.00
2023-04-12T03:36:22.305Z,94932.44
2023-04-12T03:38:55.764Z,94927.34
2023-04-12T03:41:24.350Z,94928.53
2023-04-12T03:43:51.985Z,94929.81
2023-04-12T03:46:20.111Z,94923.84
2023-04-12T03:48:55.702Z,94921.03
2023-04-12T03:51:27.025Z,94927.31
2023-04-12T03:54:02.675Z,94914.38
2023-04-12T03:56:34.612Z,94912.19
2023-04-12T03:59:07.566Z,94901.59
2023-04-12T04:01:35.544Z,94902.22
2023-04-12T04:04:04.029Z,94896.06
2023-04-12T04:06:34.219Z,94896.28
2023-04-12T04:09:02.134Z,94890.84
2023-04-12T04:11:32.793Z,94882.97
2023-04-12T04:14:07.402Z,94889.13
2023-04-12T04:16:36.402Z,94894.34
2023-04-12T04:19:06.594Z,94889.13
2023-04-12T04:21:35.862Z,94878.78
2023-04-12T04:24:04.249Z,94872.75
2023-04-12T04:26:38.349Z,94883.69
2023-04-12T04:29:12.345Z,94874.47
2023-04-12T04:31:40.818Z,94872.38
2023-04-12T04:34:12.263Z,94861.78
2023-04-12T04:36:45.587Z,94860.88
2023-04-12T04:39:18.117Z,94859.63
2023-04-12T04:41:46.637Z,94862.09
2023-04-12T04:44:25.751Z,94856.63
2023-04-12T04:46:56.602Z,94852.03
2023-04-12T04:49:24.425Z,94852.31
2023-04-12T04:51:53.430Z,94860.06
2023-04-12T04:54:23.198Z,94856.03
2023-04-12T04:56:51.057Z,94855.75
2023-04-12T04:59:20.809Z,94852.59
2023-04-12T05:01:48.624Z,94852.13
2023-04-12T05:04:18.162Z,94845.53
2023-04-12T05:06:47.089Z,94835.03
2023-04-12T05:09:19.554Z,94832.31
2023-04-12T05:11:55.298Z,94831.25
2023-04-12T05:14:23.407Z,94835.94
2023-04-12T05:16:51.554Z,94833.22
2023-04-12T05:19:19.227Z,94829.25
2023-04-12T05:21:47.394Z,94829.31
2023-04-12T05:24:15.223Z,94824.53
2023-04-12T05:26:47.198Z,94825.47
2023-04-12T05:29:15.505Z,94816.13
2023-04-12T05:31:43.952Z,94826.72
2023-04-12T05:34:18.924Z,94820.31
2023-04-12T05:36:54.705Z,94821.13
2023-04-12T05:39:40.251Z,94814.44
2023-04-12T05:42:11.947Z,94818.75
2023-04-12T05:44:40.614Z,94811.41
2023-04-12T05:47:12.914Z,94802.00
2023-04-12T05:49:40.971Z,94797.38
2023-04-12T05:52:10.970Z,94797.50
2023-04-12T05:54:39.487Z,94797.25
2023-04-12T05:57:13.867Z,94801.94
2023-04-12T05:59:42.004Z,94804.63
2023-04-12T06:02:10.678Z,94794.41
2023-04-12T06:04:50.070Z,94793.59
2023-04-12T06:07:19.371Z,94785.63
2023-04-12T06:09:47.261Z,94791.69
2023-04-12T06:12:16.392Z,94800.09
2023-04-12T06:14:44.148Z,94790.88
2023-04-12T06:17:11.903Z,94794.03
2023-04-12T06:19:41.047Z,94785.63
2023-04-12T06:22:08.638Z,94781.72
2023-04-12T06:24:37.494Z,94787.06
2023-04-12T06:27:05.417Z,94778.31
2023-04-12T06:29:34.717Z,94782.22
2023-04-12T06:32:02.361Z,94791.31
2023-04-12T06:34:31.610Z,94782.56
2023-04-12T06:37:03.634Z,94777.19
2023-04-12T06:39:31.335Z,94774.56
2023-04-12T06:41:59.508Z,94776.47
2023-04-12T06:44:27.896Z,94780.59
2023-04-12T06:46:56.855Z,94771.28
2023-04-12T06:49:24.452Z,94770.81
2023-04-12T06:51:52.236Z,94759.47
2023-04-12T06:54:19.929Z,94756.56
2023-04-12T06:56:47.530Z,94743.72
2023-04-12T06:59:15.374Z,94743.56
2023-04-12T07:01:43.506Z,94738.38
2023-04-12T07:04:13.717Z,94730.97
2023-04-12T07:06:42.540Z,94730.19
2023-04-12T07:09:10.391Z,94723.31
2023-04-12T07:11:37.996Z,94726.19
2023-04-12T07:14:06.216Z,94720.81
2023-04-12T07:16:34.037Z,94719.69
2023-04-12T07:19:01.821Z,94709.78
2023-04-12T07:21:30.761Z,94699.00
2023-04-12T07:23:58.399Z,94699.25
2023-04-12T07:26:26.060Z,94684.19
2023-04-12T07:28:54.673Z,94677.97
2023-04-12T07:31:23.572Z,94665.50
2023-04-12T07:33:51.269Z,94663.75
2023-04-12T07:36:21.140Z,94670.38
2023-04-12T07:38:55.164Z,94657.50
2023-04-12T07:41:23.313Z,94660.13
2023-04-12T07:43:51.446Z,94668.47
2023-04-12T07:46:19.059Z,94656.47
2023-04-12T07:48:46.940Z,94653.50
2023-04-12T07:51:14.739Z,94656.75
2023-04-12T07:53:42.489Z,94649.91
2023-04-12T07:56:11.514Z,94654.41
2023-04-12T07:58:39.122Z,94653.19
2023-04-12T08:01:08.453Z,94643.09
2023-04-12T08:03:36.167Z,94629.34
2023-04-12T08:06:04.307Z,94624.84
2023-04-12T08:08:31.951Z,94620.63
2023-04-12T08:10:59.629Z,94607.91
2023-04-12T08:13:28.574Z,94602.63
2023-04-12T08:15:56.282Z,94591.28
2023-04-12T08:18:23.925Z,94584.25
2023-04-12T08:20:52.003Z,94595.00
2023-04-12T08:23:19.704Z,94581.66
2023-04-12T08:25:47.821Z,94576.38
2023-04-12T08:28:15.672Z,94581.84
2023-04-12T08:30:45.235Z,94577.16
2023-04-12T08:33:12.810Z,94581.59
2023-04-12T08:35:41.136Z,94587.22
2023-04-12T08:38:09.023Z,94584.34
2023-04-12T08:40:37.130Z,94585.50
2023-04-12T08:43:11.988Z,94597.25
2023-04-12T08:45:39.984Z,94588.81
2023-04-12T08:48:09.111Z,94594.44
2023-04-12T08:50:36.915Z,94582.56
2023-04-12T08:53:04.559Z,94582.28
2023-04-12T08:55:32.416Z,94578.50
2023-04-12T08:58:00.655Z,94568.72
2023-04-12T09:00:28.666Z,94569.16
2023-04-12T09:02:56.484Z,94553.50
2023-04-12T09:05:30.130Z,94554.84
2023-04-12T09:07:57.948Z,94557.44
2023-04-12T09:10:33.603Z,94546.03
2023-04-12T09:13:01.646Z,94538.09
2023-04-12T09:15:29.362Z,94531.34
2023-04-12T09:18:08.346Z,94531.31
2023-04-12T09:20:38.870Z,94524.38
2023-04-12T09:23:18.190Z,94522.16
2023-04-12T09:25:48.257Z,94510.06
2023-04-12T09:28:24.151Z,94512.72
2023-04-12T09:30:53.059Z,94514.69
2023-04-12T09:33:22.210Z,94500.13
2023-04-12T09:35:51.744Z,94502.78
2023-04-12T09:38:19.515Z,94496.84
2023-04-12T09:40:47.523Z,94496.53
2023-04-12T09:43:15.801Z,94491.69
2023-04-12T09:45:43.426Z,94484.56
2023-04-12T09:48:21.998Z,94485.34
2023-04-12T09:51:00.179Z,94477.25
2023-04-12T09:53:28.158Z,94471.81
2023-04-12T09:55:56.998Z,94477.41
2023-04-12T09:58:26.459Z,94472.94
2023-04-12T10:00:57.637Z,94469.78
2023-04-12T10:03:26.015Z,94459.50
2023-04-12T10:05:55.658Z,94460.09
2023-04-12T10:08:24.095Z,94466.09
2023-04-12T10:10:52.886Z,94459.19
2023-04-12T10:13:20.887Z,94453.22
2023-04-12T10:15:51.952Z,94456.78
2023-04-12T10:18:19.881Z,94444.53
2023-04-12T10:20:48.160Z,94435.53
2023-04-12T10:23:19.736Z,94422.03
2023-04-12T10:25:49.855Z,94430.59
2023-04-12T10:28:19.490Z,94419.59
2023-04-12T10:30:48.222Z,94423.78
2023-04-12T10:33:17.854Z,94415.97
2023-04-12T10:35:57.379Z,94408.13
2023-04-12T10:38:32.451Z,94409.44
2023-04-12T10:41:19.830Z,94404.44
2023-04-12T10:43:48.100Z,94409.69
2023-04-12T10:46:49.319Z,94406.38
2023-04-12T10:49:18.105Z,94408.78
2023-04-12T10:52:22.815Z,94413.47
2023-04-12T10:54:52.058Z,94400.56
2023-04-12T10:57:44.445Z,94401.06
2023-04-12T11:00:13.474Z,94408.06
2023-04-12T11:03:12.685Z,94403.31
2023-04-12T11:06:09.197Z,94398.41
2023-04-12T11:09:00.989Z,94394.94
2023-04-12T11:11:35.826Z,94394.94
2023-04-12T11:14:03.487Z,94381.25
2023-04-12T11:16:31.217Z,94380.66
2023-04-12T11:18:59.212Z,94383.94
2023-04-12T11:21:27.417Z,94379.13
2023-04-12T11:23:56.341Z,94380.53
2023-04-12T11:26:25.535Z,94380.66
2023-04-12T11:28:55.822Z,94386.59
2023-04-12T11:31:24.378Z,94392.56
2023-04-12T11:33:52.081Z,94394.41
2023-04-12T11:36:19.756Z,94390.81
2023-04-12T11:38:50.188Z,94378.44
2023-04-12T11:41:18.826Z,94391.72
2023-04-12T11:43:47.239Z,94384.63
2023-04-12T11:46:18.115Z,94367.78
2023-04-12T11:48:46.815Z,94378.75
2023-04-12T11:51:21.164Z,94387.66
2023-04-12T11:53:54.101Z,94382.59
2023-04-12T11:56:21.988Z,94375.56
2023-04-12T11:58:49.776Z,94393.84
2023-04-12T12:01:20.391Z,94390.75
2023-04-12T12:03:48.740Z,94394.94
2023-04-12T12:06:17.524Z,94386.31
2023-04-12T12:08:45.310Z,94387.66
2023-04-12T12:11:13.258Z,94383.66
2023-04-12T12:13:48.562Z,94385.63
2023-04-12T12:16:17.340Z,94386.50
2023-04-12T12:18:51.925Z,94385.50
2023-04-12T12:21:20.933Z,94374.09
2023-04-12T12:23:49.641Z,94380.84
2023-04-12T12:26:22.366Z,94367.13
2023-04-12T12:28:51.802Z,94378.56
2023-04-12T12:31:21.236Z,94372.50
2023-04-12T12:33:52.512Z,94366.63
2023-04-12T12:36:20.995Z,94365.75
2023-04-12T12:38:51.172Z,94364.19
2023-04-12T12:41:19.757Z,94357.91
2023-04-12T12:43:47.627Z,94355.34
2023-04-12T12:46:15.908Z,94347.97
2023-04-12T12:48:43.836Z,94351.50
2023-04-12T12:51:14.154Z,94356.34
2023-04-12T12:53:42.414Z,94344.53
2023-04-12T12:56:11.065Z,94339.09
2023-04-12T12:58:41.020Z,94322.94
2023-04-12T13:01:09.026Z,94332.63
2023-04-12T13:03:37.139Z,94330.88
2023-04-12T13:06:05.349Z,94330.25
2023-04-12T13:08:35.571Z,94320.63
2023-04-12T13:11:03.169Z,94312.16
2023-04-12T13:13:30.853Z,94304.34
2023-04-12T13:15:58.424Z,94294.28
2023-04-12T13:18:26.152Z,94292.66
2023-04-12T13:20:53.703Z,94291.06
2023-04-12T13:23:21.525Z,94305.50
2023-04-12T13:25:50.575Z,94289.66
2023-04-12T13:28:18.237Z,94289.78
2023-04-12T13:30:45.868Z,94286.94
2023-04-12T13:33:17.303Z,94274.56
2023-04-12T13:35:46.823Z,94271.94
2023-04-12T13:38:14.408Z,94271.25
2023-04-12T13:40:41.977Z,94275.69
2023-04-12T13:43:11.227Z,94261.63
2023-04-12T13:45:38.997Z,94265.09
2023-04-12T13:48:07.057Z,94266.22
2023-04-12T13:50:34.719Z,94246.59
2023-04-12T13:53:02.502Z,94254.66
2023-04-12T13:55:30.121Z,94244.38
2023-04-12T13:57:57.810Z,94243.53
2023-04-12T14:00:27.297Z,94254.47
2023-04-12T14:02:55.116Z,94227.31
2023-04-12T14:05:22.797Z,94238.13
2023-04-12T14:07:52.436Z,94234.19
2023-04-12T14:10:20.005Z,94247.53
2023-04-12T14:12:47.797Z,94220.03
2023-04-12T14:15:15.353Z,94231.38
2023-04-12T14:17:44.507Z,94221.19
2023-04-12T14:20:12.632Z,94228.78
2023-04-12T14:22:40.808Z,94228.53
2023-04-12T14:25:09.442Z,94220.34
2023-04-12T14:27:37.088Z,94240.22
2023-04-12T14:30:07.213Z,94221.47
2023-04-12T14:32:35.446Z,94225.97
2023-04-12T14:35:05.277Z,94223.81
2023-04-12T14:37:33.577Z,94222.94
2023-04-12T14:40:01.566Z,94222.16
2023-04-12T14:42:29.152Z,94225.13
2023-04-12T14:44:56.824Z,94206.50
2023-04-12T14:47:24.822Z,94217.50
2023-04-12T14:49:52.523Z,94212.44
2023-04-12T14:52:21.668Z,94194.31
2023-04-12T14:54:49.501Z,94194.25
2023-04-12T14:57:17.784Z,94200.81
2023-04-12T14:59:45.769Z,94202.94
2023-04-12T15:02:13.476Z,94197.94
2023-04-12T15:04:41.339Z,94207.13
2023-04-12T15:07:08.964Z,94202.53
2023-04-12T15:09:38.620Z,94206.63
2023-04-12T15:12:06.329Z,94199.22
2023-04-12T15:14:34.209Z,94195.31
2023-04-12T15:17:01.819Z,94201.31
2023-04-12T15:19:29.492Z,94202.16
2023-04-12T15:21:57.070Z,94195.44
2023-04-12T15:24:25.525Z,94202.78
2023-04-12T15:26:54.489Z,94197.72
2023-04-12T15:29:22.412Z,94193.13
2023-04-12T15:31:50.390Z,94198.94
2023-04-12T15:34:18.521Z,94178.97
2023-04-12T15:36:46.353Z,94186.41
2023-04-12T15:39:15.025Z,94185.13
2023-04-12T15:41:43.194Z,94184.03
2023-04-12T15:44:13.399Z,94175.66
2023-04-12T15:46:42.041Z,94174.47
2023-04-12T15:49:10.354Z,94180.31
2023-04-12T15:51:38.344Z,94182.06
2023-04-12T15:54:06.881Z,94167.47
2023-04-12T15:56:35.423Z,94171.56
2023-04-12T15:59:03.191Z,94172.44
2023-04-12T16:01:32.758Z,94171.31
2023-04-12T16:04:00.509Z,94179.38
2023-04-12T16:06:30.383Z,94169.34
2023-04-12T16:08:58.072Z,94170.09
2023-04-12T16:11:26.545Z,94170.22
2023-04-12T16:13:55.072Z,94173.94
2023-04-12T16:16:24.470Z,94175.03
2023-04-12T16:18:55.768Z,94173.84
2023-04-12T16:21:26.375Z,94168.81
2023-04-12T16:23:54.045Z,94176.75
2023-04-12T16:26:22.809Z,94175.00
2023-04-12T16:28:51.668Z,94175.31
2023-04-12T16:31:21.132Z,94184.16
2023-04-12T16:33:49.229Z,94179.53
2023-04-12T16:36:18.702Z,94173.91
2023-04-12T16:38:46.699Z,94181.28
2023-04-12T16:41:14.472Z,94174.53
2023-04-12T16:43:44.087Z,94172.31
2023-04-12T16:46:13.303Z,94176.59
2023-04-12T16:48:41.222Z,94180.50
2023-04-12T16:51:09.081Z,94189.56
2023-04-12T16:53:38.181Z,94182.81
2023-04-12T16:56:06.581Z,94178.69
2023-04-12T16:58:34.211Z,94193.94
2023-04-12T17:01:01.900Z,94181.72
2023-04-12T17:03:30.286Z,94181.03
2023-04-12T17:05:58.179Z,94188.25
2023-04-12T17:08:25.857Z,94191.38
2023-04-12T17:10:55.245Z,94188.28
2023-04-12T17:13:22.826Z,94185.25
2023-04-12T17:15:50.495Z,94204.41
2023-04-12T17:18:18.164Z,94188.53
2023-04-12T17:20:46.477Z,94193.03
2023-04-12T17:23:14.419Z,94195.78
2023-04-12T17:25:42.355Z,94210.59
2023-04-12T17:28:11.413Z,94213.59
2023-04-12T17:30:39.245Z,94222.09
2023-04-12T17:33:07.789Z,94211.50
2023-04-12T17:35:36.679Z,94210.94
2023-04-12T17:38:04.923Z,94209.66
2023-04-12T17:40:32.504Z,94214.63
2023-04-12T17:43:00.106Z,94205.34
2023-04-12T17:45:29.359Z,94195.53
2023-04-12T17:47:57.001Z,94210.91
2023-04-12T17:50:24.859Z,94201.72
2023-04-12T17:52:52.590Z,94205.34
2023-04-12T17:55:23.436Z,94202.56
2023-04-12T17:57:51.177Z,94203.16
2023-04-12T18:00:19.782Z,94209.78
2023-04-12T18:02:50.059Z,94218.16
2023-04-12T18:05:17.839Z,94215.91
2023-04-12T18:07:45.619Z,94223.72
2023-04-12T18:10:18.261Z,94228.25
2023-04-12T18:12:47.736Z,94236.59
2023-04-12T18:15:15.755Z,94216.69
2023-04-12T18:17:43.612Z,94224.25
2023-04-12T18:20:13.833Z,94230.06
2023-04-12T18:22:42.232Z,94218.56
2023-04-12T18:25:11.627Z,94233.88
2023-04-12T18:27:39.484Z,94253.63
2023-04-12T18:30:08.472Z,94248.22
2023-04-12T18:32:36.203Z,94244.44
2023-04-12T18:35:04.610Z,94263.63
2023-04-12T18:37:33.524Z,94270.41
2023-04-12T18:40:01.412Z,94268.25
2023-04-12T18:42:29.112Z,94263.28
2023-04-12T18:44:58.144Z,94266.03
2023-04-12T18:47:26.927Z,94270.84
2023-04-12T18:49:54.519Z,94283.09
2023-04-12T18:52:22.317Z,94283.31
2023-04-12T18:54:51.339Z,94289.84
2023-04-12T18:57:19.386Z,94295.47
2023-04-12T18:59:48.842Z,94292.63
2023-04-12T19:02:18.183Z,94308.41
2023-04-12T19:04:46.074Z,94302.38
2023-04-12T19:07:13.628Z,94306.66
2023-04-12T19:09:41.192Z,94304.16
2023-04-12T19:12:10.335Z,94307.53
2023-04-12T19:14:37.924Z,94317.91
2023-04-12T19:17:05.572Z,94318.16
2023-04-12T19:19:33.165Z,94321.38
2023-04-12T19:22:00.806Z,94319.47
2023-04-12T19:24:28.416Z,94325.38
2023-04-12T19:26:56.311Z,94335.13
2023-04-12T19:29:26.035Z,94330.47
2023-04-12T19:31:54.188Z,94339.84
2023-04-12T19:34:21.773Z,94327.31
2023-04-12T19:36:49.785Z,94329.16
2023-04-12T19:39:18.496Z,94331.44
2023-04-12T19:41:48.505Z,94320.31
2023-04-12T19:44:16.087Z,94329.69
2023-04-12T19:46:45.280Z,94336.72
2023-04-12T19:49:13.330Z,94339.59
2023-04-12T19:51:40.984Z,94336.91
2023-04-12T19:54:09.911Z,94335.78
2023-04-12T19:56:37.626Z,94334.25
2023-04-12T19:59:06.472Z,94351.91
2023-04-12T20:01:35.239Z,94350.28
2023-04-12T20:04:05.629Z,94359.59
2023-04-12T20:06:33.259Z,94372.19
2023-04-12T20:09:01.036Z,94370.50
2023-04-12T20:11:28.854Z,94378.72
2023-04-12T20:13:56.415Z,94384.41
2023-04-12T20:16:24.149Z,94389.31
2023-04-12T20:18:55.755Z,94398.22
2023-04-12T20:21:24.846Z,94395.81
2023-04-12T20:23:52.753Z,94395.81
2023-04-12T20:26:21.148Z,94399.25
2023-04-12T20:28:48.811Z,94407.34
2023-04-12T20:31:16.514Z,94397.84
2023-04-12T20:33:44.339Z,94405.50
2023-04-12T20:36:13.164Z,94399.66
2023-04-12T20:38:42.738Z,94410.38
2023-04-12T20:41:10.919Z,94412.81
2023-04-12T20:43:44.913Z,94404.84
2023-04-12T20:46:15.572Z,94407.31
2023-04-12T20:48:43.515Z,94416.44
2023-04-12T20:51:13.575Z,94416.84
2023-04-12T20:53:43.622Z,94415.63
2023-04-12T20:56:11.210Z,94415.63
2023-04-12T20:58:39.037Z,94420.28
2023-04-12T21:01:07.492Z,94420.25
2023-04-12T21:03:37.020Z,94431.38
2023-04-12T21:06:06.740Z,94434.63
2023-04-12T21:08:34.676Z,94430.41
2023-04-12T21:11:03.835Z,94440.09
2023-04-12T21:13:31.846Z,94429.94
2023-04-12T21:16:01.145Z,94442.13
2023-04-12T21:18:29.086Z,94424.91
2023-04-12T21:20:59.741Z,94410.69
2023-04-12T21:23:29.184Z,94417.97
2023-04-12T21:25:57.830Z,94424.84
2023-04-12T21:28:29.531Z,94431.78
2023-04-12T21:30:58.198Z,94422.03
2023-04-12T21:33:26.253Z,94419.00
2023-04-12T21:35:55.031Z,94417.78
2023-04-12T21:38:23.041Z,94417.56
2023-04-12T21:40:51.037Z,94430.34
2023-04-12T21:43:18.909Z,94421.59
2023-04-12T21:45:47.877Z,94415.13
2023-04-12T21:48:15.778Z,94421.22
2023-04-12T21:50:43.366Z,94416.31
2023-04-12T21:53:11.090Z,94420.34
2023-04-12T21:55:38.848Z,94426.84
2023-04-12T21:58:07.290Z,94434.78
2023-04-12T22:00:34.927Z,94435.03
2023-04-12T22:03:04.353Z,94445.72
2023-04-12T22:05:32.151Z,94452.88
2023-04-12T22:07:59.854Z,94444.31
2023-04-12T22:10:27.583Z,94440.69
2023-04-12T22:12:55.147Z,94434.59
2023-04-12T22:15:22.965Z,94420.00
2023-04-12T22:17:50.564Z,94430.53
2023-04-12T22:20:19.808Z,94420.84
2023-04-12T22:22:47.559Z,94424.44
2023-04-12T22:25:15.828Z,94420.84
2023-04-12T22:27:46.212Z,94431.75
2023-04-12T22:30:14.477Z,94425.25
2023-04-12T22:32:42.143Z,94426.88
2023-04-12T22:35:10.702Z,94433.56
2023-04-12T22:37:41.120Z,94444.72
2023-04-12T22:40:12.237Z,94453.66
2023-04-12T22:42:45.964Z,94462.53
2023-04-12T22:45:14.418Z,94467.44
2023-04-12T22:47:42.968Z,94466.25
2023-04-12T22:50:12.795Z,94480.41
2023-04-12T22:52:42.402Z,94471.91
2023-04-12T22:55:12.614Z,94473.91
2023-04-12T22:57:40.198Z,94480.41
2023-04-12T23:00:15.743Z,94480.00
2023-04-12T23:02:44.849Z,94485.56
2023-04-12T23:05:12.832Z,94485.03
2023-04-12T23:07:43.333Z,94515.31
2023-04-12T23:10:12.260Z,94501.41
2023-04-12T23:12:40.047Z,94513.69
2023-04-12T23:15:08.993Z,94523.69
2023-04-12T23:17:37.247Z,94516.09
2023-04-12T23:20:09.831Z,94518.78
2023-04-12T23:22:56.515Z,94531.72
2023-04-12T23:25:38.595Z,94538.19
2023-04-12T23:28:12.496Z,94528.63
2023-04-12T23:30:42.467Z,94538.88
2023-04-12T23:33:11.954Z,94534.88
2023-04-12T23:35:40.308Z,94535.50
2023-04-12T23:38:09.573Z,94536.78
2023-04-12T23:40:38.614Z,94530.78
2023-04-12T23:43:08.515Z,94515.13
2023-04-12T23:45:36.744Z,94514.66
2023-04-12T23:48:05.478Z,94491.69
2023-04-12T23:50:33.377Z,94494.94
2023-04-12T23:53:01.059Z,94502.56
2023-04-12T23:55:28.956Z,94498.81
2023-04-12T23:57:57.899Z,94510.97
